MSC Magnifica — 3FLO4 — position and weather

sailwx.info

Track history (hours):
 
Tides and Currents Weather Stations Pressure Air Temp Water Temp Dewpoint Dewpoint Depression Visibility Wind Speed Wind Dir Waves Ship Positions

MSC Magnifica

Last reported at 2017-Mar-24 09:33 UTC. Time now 2017-Mar-24 10:11 UTC.
Position N 37°29' E 017°05'.

Length 294 m; draft 7.8 m.

Type: Ship. MMSI: 352594000.

Date/timePositionNaut miles runAvg speedWind from/ knotsBaromVisibWave heightAir tempDewpointWater temp
2017-Mar-24 09:33N 37°29' E 017°05'1818.0
2017-Mar-24 08:33N 37°24' E 017°27'1717.6
2017-Mar-24 07:34N 37°18' E 017°47'1818.2
2017-Mar-24 06:33N 37°12' E 018°09'  
2017-Mar-21 15:34N 34°33' E 032°49'1313.4
2017-Mar-21 14:34N 34°38' E 033°04'3 2.4
2017-Mar-21 13:18N 34°39' E 033°01'0 0.0
2017-Mar-21 11:19N 34°39' E 033°01'0 0.0
2017-Mar-21 10:31N 34°39' E 033°01'45511.9
2017-Mar-19 20:15N 37°20' E 024°15'1114.4
2017-Mar-19 19:30N 37°27' E 024°04'1414.4
2017-Mar-19 18:33N 37°35' E 023°50'1414.0
2017-Mar-19 17:33N 37°45' E 023°39'1110.8
2017-Mar-19 16:33N 37°56' E 023°38'0 0.1
2017-Mar-19 15:32N 37°56' E 023°38'0 0.0
2017-Mar-19 14:32N 37°56' E 023°38'0 0.0
2017-Mar-19 13:32N 37°56' E 023°38'0 0.0
2017-Mar-19 12:32N 37°56' E 023°38'0 0.0
2017-Mar-19 11:32N 37°56' E 023°38'0 0.0
2017-Mar-19 10:32N 37°56' E 023°38'0 0.0
2017-Mar-19 09:32N 37°56' E 023°38'0 0.0
2017-Mar-19 08:29N 37°56' E 023°38'0 0.0
2017-Mar-19 07:32N 37°56' E 023°38'0 0.0
2017-Mar-19 06:32N 37°56' E 023°38'0 0.0
2017-Mar-19 05:32N 37°56' E 023°38'2 1.9
2017-Mar-19 04:33N 37°55' E 023°37'1616.2
2017-Mar-19 03:33N 37°39' E 023°45'1818.2
2017-Mar-19 02:32N 37°21' E 023°43'43112.0
2017-Mar-17 14:31N 36°02' E 014°55'1919.3
2017-Mar-17 13:33N 35°55' E 014°34'2 0.3
2017-Mar-17 05:32N 35°54' E 014°31'1313.2
2017-Mar-17 04:33N 36°05' E 014°25'1817.9
2017-Mar-17 03:33N 36°18' E 014°09'1918.3
2017-Mar-17 02:33N 36°30' E 013°52'1818.6
2017-Mar-17 01:33N 36°43' E 013°35'2418.6
2017-Mar-17 00:15N 36°59' E 013°12'35615.0
2017-Mar-16 00:33N 42°21' E 009°54'1515.0
2017-Mar-15 23:33N 42°35' E 009°47'1414.5
2017-Mar-15 22:33N 42°48' E 009°41'1514.7
2017-Mar-15 21:32N 43°03' E 009°35'1515.3
2017-Mar-15 20:33N 43°17' E 009°28'1616.0
2017-Mar-15 19:33N 43°32' E 009°22'1817.7
2017-Mar-15 18:33N 43°49' E 009°14'1817.7
2017-Mar-15 17:33N 44°05' E 009°05'1817.7
2017-Mar-15 16:33N 44°22' E 008°57'3 2.7
2017-Mar-15 15:32N 44°25' E 008°55'0 0.0
2017-Mar-15 14:28N 44°25' E 008°55'0 0.0
2017-Mar-15 13:31N 44°25' E 008°55'0 0.0
2017-Mar-15 12:31N 44°25' E 008°55'0 0.0
2017-Mar-15 11:31N 44°25' E 008°55'0 0.0
2017-Mar-15 10:31N 44°25' E 008°55'0 0.0
2017-Mar-15 09:31N 44°25' E 008°55'0 0.0
2017-Mar-15 08:31N 44°25' E 008°55'0 0.0
2017-Mar-15 07:31N 44°25' E 008°55'1 0.7
2017-Mar-15 06:33N 44°24' E 008°55'1010.4
2017-Mar-15 05:34N 44°15' E 009°03'1514.7
2017-Mar-15 04:33N 44°02' E 009°13'1514.8
2017-Mar-15 03:34N 43°50' E 009°23'1616.5
2017-Mar-15 02:34N 43°36' E 009°35'1918.5
2017-Mar-15 01:33N 43°19' E 009°48'1818.3
2017-Mar-15 00:33N 43°03' E 009°60'1818.1
2017-Mar-14 23:33N 42°45' E 010°02'1818.2
2017-Mar-14 22:33N 42°33' E 010°20'2518.1
2017-Mar-14 21:11N 42°17' E 010°46'1617.8
2017-Mar-14 20:16N 42°08' E 011°05'  
Track history (hours):
 
Tides and Currents Weather Stations Pressure Air Temp Water Temp Dewpoint Dewpoint Depression Visibility Wind Speed Wind Dir Waves Ship Positions

MSC Magnifica

Last reported at 2017-Mar-24 09:33 UTC. Time now 2017-Mar-24 10:11 UTC.
Position N 37°29' E 017°05'.

Length 294 m; draft 7.8 m.

Type: Ship. MMSI: 352594000.

Date/timePositionNaut miles runAvg speedWind from/ knotsBaromVisibWave heightAir tempDewpointWater temp
2017-Mar-24 09:33N 37°29' E 017°05'1818.0
2017-Mar-24 08:33N 37°24' E 017°27'1717.6
2017-Mar-24 07:34N 37°18' E 017°47'1818.2
2017-Mar-24 06:33N 37°12' E 018°09'  
2017-Mar-21 15:34N 34°33' E 032°49'1313.4
2017-Mar-21 14:34N 34°38' E 033°04'3 2.4
2017-Mar-21 13:18N 34°39' E 033°01'0 0.0
2017-Mar-21 11:19N 34°39' E 033°01'0 0.0
2017-Mar-21 10:31N 34°39' E 033°01'45511.9
2017-Mar-19 20:15N 37°20' E 024°15'1114.4
2017-Mar-19 19:30N 37°27' E 024°04'1414.4
2017-Mar-19 18:33N 37°35' E 023°50'1414.0
2017-Mar-19 17:33N 37°45' E 023°39'1110.8
2017-Mar-19 16:33N 37°56' E 023°38'0 0.1
2017-Mar-19 15:32N 37°56' E 023°38'0 0.0
2017-Mar-19 14:32N 37°56' E 023°38'0 0.0
2017-Mar-19 13:32N 37°56' E 023°38'0 0.0
2017-Mar-19 12:32N 37°56' E 023°38'0 0.0
2017-Mar-19 11:32N 37°56' E 023°38'0 0.0
2017-Mar-19 10:32N 37°56' E 023°38'0 0.0
2017-Mar-19 09:32N 37°56' E 023°38'0 0.0
2017-Mar-19 08:29N 37°56' E 023°38'0 0.0
2017-Mar-19 07:32N 37°56' E 023°38'0 0.0
2017-Mar-19 06:32N 37°56' E 023°38'0 0.0
2017-Mar-19 05:32N 37°56' E 023°38'2 1.9
2017-Mar-19 04:33N 37°55' E 023°37'1616.2
2017-Mar-19 03:33N 37°39' E 023°45'1818.2
2017-Mar-19 02:32N 37°21' E 023°43'43112.0
2017-Mar-17 14:31N 36°02' E 014°55'1919.3
2017-Mar-17 13:33N 35°55' E 014°34'2 0.3
2017-Mar-17 05:32N 35°54' E 014°31'1313.2
2017-Mar-17 04:33N 36°05' E 014°25'1817.9
2017-Mar-17 03:33N 36°18' E 014°09'1918.3
2017-Mar-17 02:33N 36°30' E 013°52'1818.6
2017-Mar-17 01:33N 36°43' E 013°35'2418.6
2017-Mar-17 00:15N 36°59' E 013°12'35615.0
2017-Mar-16 00:33N 42°21' E 009°54'1515.0
2017-Mar-15 23:33N 42°35' E 009°47'1414.5
2017-Mar-15 22:33N 42°48' E 009°41'1514.7
2017-Mar-15 21:32N 43°03' E 009°35'1515.3
2017-Mar-15 20:33N 43°17' E 009°28'1616.0
2017-Mar-15 19:33N 43°32' E 009°22'1817.7
2017-Mar-15 18:33N 43°49' E 009°14'1817.7
2017-Mar-15 17:33N 44°05' E 009°05'1817.7
2017-Mar-15 16:33N 44°22' E 008°57'3 2.7
2017-Mar-15 15:32N 44°25' E 008°55'0 0.0
2017-Mar-15 14:28N 44°25' E 008°55'0 0.0
2017-Mar-15 13:31N 44°25' E 008°55'0 0.0
2017-Mar-15 12:31N 44°25' E 008°55'0 0.0
2017-Mar-15 11:31N 44°25' E 008°55'0 0.0
2017-Mar-15 10:31N 44°25' E 008°55'0 0.0
2017-Mar-15 09:31N 44°25' E 008°55'0 0.0
2017-Mar-15 08:31N 44°25' E 008°55'0 0.0
2017-Mar-15 07:31N 44°25' E 008°55'1 0.7
2017-Mar-15 06:33N 44°24' E 008°55'1010.4
2017-Mar-15 05:34N 44°15' E 009°03'1514.7
2017-Mar-15 04:33N 44°02' E 009°13'1514.8
2017-Mar-15 03:34N 43°50' E 009°23'1616.5
2017-Mar-15 02:34N 43°36' E 009°35'1918.5
2017-Mar-15 01:33N 43°19' E 009°48'1818.3
2017-Mar-15 00:33N 43°03' E 009°60'1818.1
2017-Mar-14 23:33N 42°45' E 010°02'1818.2
2017-Mar-14 22:33N 42°33' E 010°20'2518.1
2017-Mar-14 21:11N 42°17' E 010°46'1617.8
2017-Mar-14 20:16N 42°08' E 011°05'  

Dump ship's entire track history